sensor_id;sensor_type;location;lat;lon;timestamp;P1;durP1;ratioP1;P2;durP2;ratioP2
53652;SDS011;39553;52.954;5.932;2023-02-24T00:01:37;12.95;;;2.55;;
53652;SDS011;39553;52.954;5.932;2023-02-24T00:04:05;4.60;;;1.55;;
53652;SDS011;39553;52.954;5.932;2023-02-24T00:06:36;7.13;;;1.58;;
53652;SDS011;39553;52.954;5.932;2023-02-24T00:09:05;2.90;;;1.35;;
53652;SDS011;39553;52.954;5.932;2023-02-24T00:11:34;1.90;;;0.70;;
53652;SDS011;39553;52.954;5.932;2023-02-24T00:14:08;3.65;;;0.85;;
53652;SDS011;39553;52.954;5.932;2023-02-24T00:16:35;2.45;;;0.60;;
53652;SDS011;39553;52.954;5.932;2023-02-24T00:19:04;4.35;;;0.85;;
53652;SDS011;39553;52.954;5.932;2023-02-24T00:21:31;2.03;;;0.73;;
53652;SDS011;39553;52.954;5.932;2023-02-24T00:23:58;6.05;;;1.20;;
53652;SDS011;39553;52.954;5.932;2023-02-24T00:26:24;7.05;;;1.40;;
53652;SDS011;39553;52.954;5.932;2023-02-24T00:28:50;4.55;;;1.55;;
53652;SDS011;39553;52.954;5.932;2023-02-24T00:31:17;4.53;;;1.23;;
53652;SDS011;39553;52.954;5.932;2023-02-24T00:33:44;3.45;;;1.67;;
53652;SDS011;39553;52.954;5.932;2023-02-24T00:38:58;3.03;;;1.20;;
53652;SDS011;39553;52.954;5.932;2023-02-24T00:41:26;8.23;;;1.25;;
53652;SDS011;39553;52.954;5.932;2023-02-24T00:43:54;9.98;;;1.55;;
53652;SDS011;39553;52.954;5.932;2023-02-24T00:46:23;8.13;;;1.20;;
53652;SDS011;39553;52.954;5.932;2023-02-24T00:48:51;4.57;;;1.25;;
53652;SDS011;39553;52.954;5.932;2023-02-24T00:51:20;5.05;;;1.58;;
53652;SDS011;39553;52.954;5.932;2023-02-24T00:53:54;7.57;;;1.40;;
53652;SDS011;39553;52.954;5.932;2023-02-24T00:56:25;7.85;;;1.63;;
53652;SDS011;39553;52.954;5.932;2023-02-24T00:58:52;14.35;;;1.95;;
53652;SDS011;39553;52.954;5.932;2023-02-24T01:01:21;7.40;;;2.15;;
53652;SDS011;39553;52.954;5.932;2023-02-24T01:03:51;9.07;;;1.33;;
53652;SDS011;39553;52.954;5.932;2023-02-24T01:06:22;4.88;;;1.30;;
53652;SDS011;39553;52.954;5.932;2023-02-24T01:08:50;9.05;;;1.50;;
53652;SDS011;39553;52.954;5.932;2023-02-24T01:11:18;7.10;;;1.30;;
53652;SDS011;39553;52.954;5.932;2023-02-24T01:14:08;6.15;;;1.48;;
53652;SDS011;39553;52.954;5.932;2023-02-24T01:16:36;11.60;;;1.92;;
53652;SDS011;39553;52.954;5.932;2023-02-24T01:19:02;4.95;;;1.48;;
53652;SDS011;39553;52.954;5.932;2023-02-24T01:21:29;6.88;;;1.40;;
53652;SDS011;39553;52.954;5.932;2023-02-24T01:23:55;7.68;;;1.58;;
53652;SDS011;39553;52.954;5.932;2023-02-24T01:26:21;8.43;;;2.17;;
53652;SDS011;39553;52.954;5.932;2023-02-24T01:28:47;8.35;;;1.83;;
53652;SDS011;39553;52.954;5.932;2023-02-24T01:31:15;7.78;;;1.88;;
53652;SDS011;39553;52.954;5.932;2023-02-24T01:33:48;6.35;;;1.52;;
53652;SDS011;39553;52.954;5.932;2023-02-24T01:36:16;5.78;;;1.55;;
53652;SDS011;39553;52.954;5.932;2023-02-24T01:38:44;10.52;;;1.33;;
53652;SDS011;39553;52.954;5.932;2023-02-24T01:41:12;8.93;;;1.77;;
53652;SDS011;39553;52.954;5.932;2023-02-24T01:46:38;6.93;;;1.55;;
53652;SDS011;39553;52.954;5.932;2023-02-24T01:49:11;5.28;;;1.48;;
53652;SDS011;39553;52.954;5.932;2023-02-24T01:51:55;10.35;;;1.48;;
53652;SDS011;39553;52.954;5.932;2023-02-24T01:54:31;10.85;;;2.35;;
53652;SDS011;39553;52.954;5.932;2023-02-24T01:57:07;5.15;;;0.95;;
53652;SDS011;39553;52.954;5.932;2023-02-24T01:59:34;4.32;;;1.15;;
53652;SDS011;39553;52.954;5.932;2023-02-24T02:02:03;14.10;;;1.45;;
53652;SDS011;39553;52.954;5.932;2023-02-24T02:04:38;3.10;;;1.02;;
53652;SDS011;39553;52.954;5.932;2023-02-24T02:07:05;6.00;;;1.20;;
53652;SDS011;39553;52.954;5.932;2023-02-24T02:09:34;3.33;;;0.70;;
53652;SDS011;39553;52.954;5.932;2023-02-24T02:12:02;10.15;;;1.50;;
53652;SDS011;39553;52.954;5.932;2023-02-24T02:14:27;4.53;;;0.90;;
53652;SDS011;39553;52.954;5.932;2023-02-24T02:28:05;5.80;;;1.23;;
53652;SDS011;39553;52.954;5.932;2023-02-24T02:39:15;9.65;;;1.90;;
53652;SDS011;39553;52.954;5.932;2023-02-24T02:42:05;8.25;;;1.67;;
53652;SDS011;39553;52.954;5.932;2023-02-24T02:45:06;5.35;;;1.55;;
53652;SDS011;39553;52.954;5.932;2023-02-24T02:53:01;5.07;;;1.15;;
53652;SDS011;39553;52.954;5.932;2023-02-24T02:55:34;3.50;;;0.65;;
53652;SDS011;39553;52.954;5.932;2023-02-24T02:58:11;4.47;;;1.00;;
53652;SDS011;39553;52.954;5.932;2023-02-24T03:00:43;5.47;;;1.23;;
53652;SDS011;39553;52.954;5.932;2023-02-24T03:03:23;12.57;;;1.40;;
53652;SDS011;39553;52.954;5.932;2023-02-24T03:05:53;6.85;;;1.10;;
53652;SDS011;39553;52.954;5.932;2023-02-24T03:08:24;1.92;;;0.80;;
53652;SDS011;39553;52.954;5.932;2023-02-24T03:10:53;5.18;;;1.20;;
53652;SDS011;39553;52.954;5.932;2023-02-24T03:13:25;6.95;;;1.02;;
53652;SDS011;39553;52.954;5.932;2023-02-24T03:15:56;2.47;;;0.80;;
53652;SDS011;39553;52.954;5.932;2023-02-24T03:18:31;4.72;;;0.90;;
53652;SDS011;39553;52.954;5.932;2023-02-24T03:21:05;7.35;;;0.90;;
53652;SDS011;39553;52.954;5.932;2023-02-24T03:23:41;3.80;;;0.88;;
53652;SDS011;39553;52.954;5.932;2023-02-24T03:26:18;2.63;;;0.73;;
53652;SDS011;39553;52.954;5.932;2023-02-24T03:29:11;1.90;;;0.57;;
53652;SDS011;39553;52.954;5.932;2023-02-24T03:37:24;7.28;;;1.75;;
53652;SDS011;39553;52.954;5.932;2023-02-24T03:39:59;4.35;;;0.88;;
53652;SDS011;39553;52.954;5.932;2023-02-24T03:42:35;0.95;;;0.68;;
53652;SDS011;39553;52.954;5.932;2023-02-24T03:45:05;5.57;;;1.13;;
53652;SDS011;39553;52.954;5.932;2023-02-24T03:47:31;4.85;;;1.27;;
53652;SDS011;39553;52.954;5.932;2023-02-24T03:49:57;4.15;;;0.93;;
53652;SDS011;39553;52.954;5.932;2023-02-24T04:03:39;3.13;;;0.80;;
53652;SDS011;39553;52.954;5.932;2023-02-24T04:17:05;6.47;;;0.88;;
53652;SDS011;39553;52.954;5.932;2023-02-24T04:19:45;6.40;;;1.30;;
53652;SDS011;39553;52.954;5.932;2023-02-24T04:22:15;3.67;;;1.10;;
53652;SDS011;39553;52.954;5.932;2023-02-24T04:24:45;2.03;;;0.85;;
53652;SDS011;39553;52.954;5.932;2023-02-24T04:27:14;7.60;;;1.38;;
53652;SDS011;39553;52.954;5.932;2023-02-24T04:29:43;3.65;;;1.00;;
53652;SDS011;39553;52.954;5.932;2023-02-24T04:32:13;3.05;;;1.35;;
53652;SDS011;39553;52.954;5.932;2023-02-24T04:34:42;7.78;;;1.20;;
53652;SDS011;39553;52.954;5.932;2023-02-24T04:37:09;6.70;;;1.52;;
53652;SDS011;39553;52.954;5.932;2023-02-24T04:39:35;14.73;;;1.48;;
53652;SDS011;39553;52.954;5.932;2023-02-24T04:42:03;5.53;;;1.85;;
53652;SDS011;39553;52.954;5.932;2023-02-24T04:44:31;4.13;;;1.02;;
53652;SDS011;39553;52.954;5.932;2023-02-24T04:46:58;1.90;;;0.80;;
53652;SDS011;39553;52.954;5.932;2023-02-24T04:49:24;13.43;;;1.25;;
53652;SDS011;39553;52.954;5.932;2023-02-24T04:51:51;3.10;;;0.88;;
53652;SDS011;39553;52.954;5.932;2023-02-24T04:54:18;1.65;;;0.60;;
53652;SDS011;39553;52.954;5.932;2023-02-24T04:56:46;5.30;;;0.80;;
53652;SDS011;39553;52.954;5.932;2023-02-24T04:59:14;4.45;;;1.20;;
53652;SDS011;39553;52.954;5.932;2023-02-24T05:01:44;3.97;;;1.00;;
53652;SDS011;39553;52.954;5.932;2023-02-24T05:04:11;2.33;;;0.50;;
53652;SDS011;39553;52.954;5.932;2023-02-24T05:06:39;2.10;;;0.75;;
53652;SDS011;39553;52.954;5.932;2023-02-24T05:09:08;6.40;;;1.30;;
53652;SDS011;39553;52.954;5.932;2023-02-24T05:11:41;3.90;;;0.95;;
53652;SDS011;39553;52.954;5.932;2023-02-24T05:14:09;3.97;;;1.23;;
53652;SDS011;39553;52.954;5.932;2023-02-24T05:16:39;4.43;;;1.25;;
53652;SDS011;39553;52.954;5.932;2023-02-24T05:19:07;4.18;;;1.00;;
53652;SDS011;39553;52.954;5.932;2023-02-24T05:21:52;5.30;;;1.20;;
53652;SDS011;39553;52.954;5.932;2023-02-24T05:24:17;2.97;;;1.48;;
53652;SDS011;39553;52.954;5.932;2023-02-24T05:26:43;11.75;;;1.75;;
53652;SDS011;39553;52.954;5.932;2023-02-24T05:29:09;4.68;;;1.48;;
53652;SDS011;39553;52.954;5.932;2023-02-24T05:31:35;6.88;;;1.55;;
53652;SDS011;39553;52.954;5.932;2023-02-24T05:34:02;12.63;;;1.58;;
53652;SDS011;39553;52.954;5.932;2023-02-24T05:36:32;5.45;;;1.08;;
53652;SDS011;39553;52.954;5.932;2023-02-24T05:39:00;6.35;;;1.80;;
53652;SDS011;39553;52.954;5.932;2023-02-24T05:41:31;3.60;;;1.05;;
53652;SDS011;39553;52.954;5.932;2023-02-24T05:44:01;12.95;;;2.47;;
53652;SDS011;39553;52.954;5.932;2023-02-24T05:46:33;1.65;;;0.70;;
53652;SDS011;39553;52.954;5.932;2023-02-24T05:49:03;2.67;;;1.00;;
53652;SDS011;39553;52.954;5.932;2023-02-24T05:51:38;11.57;;;2.75;;
53652;SDS011;39553;52.954;5.932;2023-02-24T05:54:09;3.38;;;1.15;;
53652;SDS011;39553;52.954;5.932;2023-02-24T05:56:38;6.32;;;2.05;;
53652;SDS011;39553;52.954;5.932;2023-02-24T05:59:08;23.88;;;2.83;;
53652;SDS011;39553;52.954;5.932;2023-02-24T06:01:36;0.98;;;0.57;;
53652;SDS011;39553;52.954;5.932;2023-02-24T06:04:06;4.15;;;1.48;;
53652;SDS011;39553;52.954;5.932;2023-02-24T06:06:37;8.30;;;1.80;;
53652;SDS011;39553;52.954;5.932;2023-02-24T06:09:06;3.53;;;1.48;;
53652;SDS011;39553;52.954;5.932;2023-02-24T06:11:35;10.00;;;2.47;;
53652;SDS011;39553;52.954;5.932;2023-02-24T06:14:01;3.88;;;1.25;;
53652;SDS011;39553;52.954;5.932;2023-02-24T06:16:31;16.83;;;2.78;;
53652;SDS011;39553;52.954;5.932;2023-02-24T06:19:05;16.38;;;3.67;;
53652;SDS011;39553;52.954;5.932;2023-02-24T06:21:33;10.93;;;2.08;;
53652;SDS011;39553;52.954;5.932;2023-02-24T06:23:59;13.32;;;3.53;;
53652;SDS011;39553;52.954;5.932;2023-02-24T06:26:26;11.55;;;2.40;;
53652;SDS011;39553;52.954;5.932;2023-02-24T06:28:57;9.88;;;3.05;;
53652;SDS011;39553;52.954;5.932;2023-02-24T06:31:24;18.70;;;3.67;;
53652;SDS011;39553;52.954;5.932;2023-02-24T06:33:54;7.05;;;2.42;;
53652;SDS011;39553;52.954;5.932;2023-02-24T06:36:21;7.05;;;2.50;;
53652;SDS011;39553;52.954;5.932;2023-02-24T06:38:47;10.15;;;2.83;;
53652;SDS011;39553;52.954;5.932;2023-02-24T06:41:17;11.73;;;2.15;;
53652;SDS011;39553;52.954;5.932;2023-02-24T06:43:46;11.40;;;3.38;;
53652;SDS011;39553;52.954;5.932;2023-02-24T06:46:13;11.48;;;2.78;;
53652;SDS011;39553;52.954;5.932;2023-02-24T06:48:40;19.17;;;3.38;;
53652;SDS011;39553;52.954;5.932;2023-02-24T06:51:08;10.52;;;3.00;;
53652;SDS011;39553;52.954;5.932;2023-02-24T06:53:37;8.45;;;3.25;;
53652;SDS011;39553;52.954;5.932;2023-02-24T06:56:10;14.45;;;3.13;;
53652;SDS011;39553;52.954;5.932;2023-02-24T06:58:42;7.85;;;1.83;;
53652;SDS011;39553;52.954;5.932;2023-02-24T07:01:13;5.93;;;1.92;;
53652;SDS011;39553;52.954;5.932;2023-02-24T07:03:40;9.73;;;2.17;;
53652;SDS011;39553;52.954;5.932;2023-02-24T07:06:24;7.32;;;1.85;;
53652;SDS011;39553;52.954;5.932;2023-02-24T07:08:50;10.27;;;2.90;;
53652;SDS011;39553;52.954;5.932;2023-02-24T07:11:17;13.80;;;2.95;;
53652;SDS011;39553;52.954;5.932;2023-02-24T07:13:45;12.65;;;2.47;;
53652;SDS011;39553;52.954;5.932;2023-02-24T07:16:12;7.93;;;1.90;;
53652;SDS011;39553;52.954;5.932;2023-02-24T07:18:40;6.55;;;3.55;;
53652;SDS011;39553;52.954;5.932;2023-02-24T07:21:08;16.10;;;3.25;;
53652;SDS011;39553;52.954;5.932;2023-02-24T07:23:38;17.80;;;5.75;;
53652;SDS011;39553;52.954;5.932;2023-02-24T07:26:23;8.05;;;3.88;;
53652;SDS011;39553;52.954;5.932;2023-02-24T07:28:52;18.48;;;4.88;;
53652;SDS011;39553;52.954;5.932;2023-02-24T07:31:22;16.67;;;4.63;;
53652;SDS011;39553;52.954;5.932;2023-02-24T07:33:53;14.32;;;3.65;;
53652;SDS011;39553;52.954;5.932;2023-02-24T07:36:21;15.25;;;5.10;;
53652;SDS011;39553;52.954;5.932;2023-02-24T07:38:51;15.60;;;4.75;;
53652;SDS011;39553;52.954;5.932;2023-02-24T07:41:18;13.00;;;3.33;;
53652;SDS011;39553;52.954;5.932;2023-02-24T07:43:46;12.18;;;2.35;;
53652;SDS011;39553;52.954;5.932;2023-02-24T07:46:17;6.82;;;2.25;;
53652;SDS011;39553;52.954;5.932;2023-02-24T07:48:49;13.82;;;3.17;;
53652;SDS011;39553;52.954;5.932;2023-02-24T07:51:23;14.52;;;3.05;;
53652;SDS011;39553;52.954;5.932;2023-02-24T07:53:51;15.73;;;4.70;;
53652;SDS011;39553;52.954;5.932;2023-02-24T07:56:21;11.77;;;4.15;;
53652;SDS011;39553;52.954;5.932;2023-02-24T07:58:51;9.90;;;2.13;;
53652;SDS011;39553;52.954;5.932;2023-02-24T08:01:43;8.05;;;2.70;;
53652;SDS011;39553;52.954;5.932;2023-02-24T08:04:14;6.50;;;2.42;;
53652;SDS011;39553;52.954;5.932;2023-02-24T08:06:43;10.70;;;3.15;;
53652;SDS011;39553;52.954;5.932;2023-02-24T08:09:14;23.05;;;3.78;;
53652;SDS011;39553;52.954;5.932;2023-02-24T08:11:49;8.05;;;2.30;;
53652;SDS011;39553;52.954;5.932;2023-02-24T08:14:26;6.90;;;2.33;;
53652;SDS011;39553;52.954;5.932;2023-02-24T08:17:00;10.07;;;3.58;;
53652;SDS011;39553;52.954;5.932;2023-02-24T08:19:38;8.88;;;2.22;;
53652;SDS011;39553;52.954;5.932;2023-02-24T08:22:05;8.35;;;2.92;;
53652;SDS011;39553;52.954;5.932;2023-02-24T08:24:57;9.18;;;3.22;;
53652;SDS011;39553;52.954;5.932;2023-02-24T08:27:31;10.23;;;3.50;;
53652;SDS011;39553;52.954;5.932;2023-02-24T08:30:03;12.73;;;3.85;;
53652;SDS011;39553;52.954;5.932;2023-02-24T08:32:32;4.95;;;2.03;;
53652;SDS011;39553;52.954;5.932;2023-02-24T08:35:16;7.70;;;2.95;;
53652;SDS011;39553;52.954;5.932;2023-02-24T08:37:44;12.25;;;3.08;;
53652;SDS011;39553;52.954;5.932;2023-02-24T08:40:21;9.57;;;2.35;;
53652;SDS011;39553;52.954;5.932;2023-02-24T08:43:15;6.07;;;2.95;;
53652;SDS011;39553;52.954;5.932;2023-02-24T08:46:01;5.43;;;2.53;;
53652;SDS011;39553;52.954;5.932;2023-02-24T08:53:59;6.32;;;3.65;;
53652;SDS011;39553;52.954;5.932;2023-02-24T08:56:35;9.95;;;3.22;;
53652;SDS011;39553;52.954;5.932;2023-02-24T08:59:07;16.40;;;5.60;;
53652;SDS011;39553;52.954;5.932;2023-02-24T09:01:53;4.72;;;3.30;;
53652;SDS011;39553;52.954;5.932;2023-02-24T09:04:46;7.97;;;4.13;;
53652;SDS011;39553;52.954;5.932;2023-02-24T09:07:34;5.43;;;2.58;;
53652;SDS011;39553;52.954;5.932;2023-02-24T09:12:37;6.65;;;3.65;;
53652;SDS011;39553;52.954;5.932;2023-02-24T09:15:05;11.82;;;4.68;;
53652;SDS011;39553;52.954;5.932;2023-02-24T09:17:33;5.18;;;2.13;;
53652;SDS011;39553;52.954;5.932;2023-02-24T09:20:08;8.60;;;3.80;;
53652;SDS011;39553;52.954;5.932;2023-02-24T09:22:53;14.38;;;6.13;;
53652;SDS011;39553;52.954;5.932;2023-02-24T09:25:26;9.32;;;3.72;;
53652;SDS011;39553;52.954;5.932;2023-02-24T09:28:09;18.30;;;5.35;;
53652;SDS011;39553;52.954;5.932;2023-02-24T09:30:41;6.47;;;3.50;;
53652;SDS011;39553;52.954;5.932;2023-02-24T09:35:53;8.68;;;3.08;;
53652;SDS011;39553;52.954;5.932;2023-02-24T09:38:27;4.57;;;3.10;;
53652;SDS011;39553;52.954;5.932;2023-02-24T09:44:38;8.50;;;3.55;;
53652;SDS011;39553;52.954;5.932;2023-02-24T09:52:47;11.82;;;4.90;;
53652;SDS011;39553;52.954;5.932;2023-02-24T09:55:31;13.27;;;3.50;;
53652;SDS011;39553;52.954;5.932;2023-02-24T10:06:14;22.55;;;4.63;;
53652;SDS011;39553;52.954;5.932;2023-02-24T10:08:49;19.05;;;4.75;;
53652;SDS011;39553;52.954;5.932;2023-02-24T10:11:22;16.38;;;4.07;;
53652;SDS011;39553;52.954;5.932;2023-02-24T10:14:12;44.22;;;5.95;;
53652;SDS011;39553;52.954;5.932;2023-02-24T10:16:43;21.50;;;4.15;;
53652;SDS011;39553;52.954;5.932;2023-02-24T10:19:31;12.82;;;4.50;;
53652;SDS011;39553;52.954;5.932;2023-02-24T10:22:02;24.15;;;5.75;;
53652;SDS011;39553;52.954;5.932;2023-02-24T10:24:40;24.17;;;4.63;;
53652;SDS011;39553;52.954;5.932;2023-02-24T10:32:55;9.38;;;3.42;;
53652;SDS011;39553;52.954;5.932;2023-02-24T10:35:25;21.92;;;5.45;;
53652;SDS011;39553;52.954;5.932;2023-02-24T10:37:58;12.80;;;3.30;;
53652;SDS011;39553;52.954;5.932;2023-02-24T10:40:31;21.13;;;4.78;;
53652;SDS011;39553;52.954;5.932;2023-02-24T10:43:19;18.02;;;3.60;;
53652;SDS011;39553;52.954;5.932;2023-02-24T10:45:54;19.77;;;4.15;;
53652;SDS011;39553;52.954;5.932;2023-02-24T10:48:31;17.98;;;3.92;;
53652;SDS011;39553;52.954;5.932;2023-02-24T10:51:12;10.93;;;2.40;;
53652;SDS011;39553;52.954;5.932;2023-02-24T10:54:02;24.98;;;5.40;;
53652;SDS011;39553;52.954;5.932;2023-02-24T10:56:54;29.13;;;5.22;;
53652;SDS011;39553;52.954;5.932;2023-02-24T10:59:50;22.40;;;4.47;;
53652;SDS011;39553;52.954;5.932;2023-02-24T11:02:50;16.15;;;3.75;;
53652;SDS011;39553;52.954;5.932;2023-02-24T11:05:35;21.85;;;4.65;;
53652;SDS011;39553;52.954;5.932;2023-02-24T11:08:17;25.23;;;4.45;;
53652;SDS011;39553;52.954;5.932;2023-02-24T11:13:49;19.67;;;4.10;;
53652;SDS011;39553;52.954;5.932;2023-02-24T11:16:51;12.52;;;2.90;;
53652;SDS011;39553;52.954;5.932;2023-02-24T11:22:11;16.55;;;4.03;;
53652;SDS011;39553;52.954;5.932;2023-02-24T11:24:40;26.40;;;5.43;;
53652;SDS011;39553;52.954;5.932;2023-02-24T11:27:08;24.23;;;4.75;;
53652;SDS011;39553;52.954;5.932;2023-02-24T11:33:10;20.92;;;5.47;;
53652;SDS011;39553;52.954;5.932;2023-02-24T11:35:16;23.42;;;5.50;;
53652;SDS011;39553;52.954;5.932;2023-02-24T11:41:04;11.30;;;2.92;;
53652;SDS011;39553;52.954;5.932;2023-02-24T11:44:12;17.35;;;4.90;;
53652;SDS011;39553;52.954;5.932;2023-02-24T11:46:48;26.95;;;4.78;;
53652;SDS011;39553;52.954;5.932;2023-02-24T11:49:24;19.35;;;4.63;;
53652;SDS011;39553;52.954;5.932;2023-02-24T11:52:18;25.88;;;4.50;;
53652;SDS011;39553;52.954;5.932;2023-02-24T11:54:52;12.48;;;3.17;;
53652;SDS011;39553;52.954;5.932;2023-02-24T11:57:22;13.38;;;2.33;;
53652;SDS011;39553;52.954;5.932;2023-02-24T12:00:04;26.83;;;4.28;;
53652;SDS011;39553;52.954;5.932;2023-02-24T12:05:38;20.38;;;4.32;;
53652;SDS011;39553;52.954;5.932;2023-02-24T12:08:15;14.05;;;2.97;;
53652;SDS011;39553;52.954;5.932;2023-02-24T12:11:06;21.10;;;4.05;;
53652;SDS011;39553;52.954;5.932;2023-02-24T12:13:55;16.20;;;4.03;;
53652;SDS011;39553;52.954;5.932;2023-02-24T12:16:37;19.77;;;3.15;;
53652;SDS011;39553;52.954;5.932;2023-02-24T12:21:50;22.40;;;2.70;;
53652;SDS011;39553;52.954;5.932;2023-02-24T12:24:34;11.80;;;2.95;;
53652;SDS011;39553;52.954;5.932;2023-02-24T12:29:49;19.93;;;4.03;;
53652;SDS011;39553;52.954;5.932;2023-02-24T12:35:28;19.13;;;4.50;;
53652;SDS011;39553;52.954;5.932;2023-02-24T12:38:13;14.60;;;2.88;;
53652;SDS011;39553;52.954;5.932;2023-02-24T12:41:04;10.13;;;2.20;;
53652;SDS011;39553;52.954;5.932;2023-02-24T12:44:07;9.00;;;1.85;;
53652;SDS011;39553;52.954;5.932;2023-02-24T12:46:41;5.35;;;1.90;;
53652;SDS011;39553;52.954;5.932;2023-02-24T12:49:17;9.95;;;3.20;;
53652;SDS011;39553;52.954;5.932;2023-02-24T12:52:11;8.15;;;1.90;;
53652;SDS011;39553;52.954;5.932;2023-02-24T12:55:00;7.88;;;3.30;;
53652;SDS011;39553;52.954;5.932;2023-02-24T13:03:00;6.28;;;1.25;;
53652;SDS011;39553;52.954;5.932;2023-02-24T13:09:16;9.20;;;1.17;;
53652;SDS011;39553;52.954;5.932;2023-02-24T13:17:17;4.43;;;1.40;;
53652;SDS011;39553;52.954;5.932;2023-02-24T13:19:54;4.55;;;0.95;;
53652;SDS011;39553;52.954;5.932;2023-02-24T13:22:25;6.20;;;1.02;;
53652;SDS011;39553;52.954;5.932;2023-02-24T13:24:57;8.40;;;1.33;;
53652;SDS011;39553;52.954;5.932;2023-02-24T13:27:40;2.90;;;0.82;;
53652;SDS011;39553;52.954;5.932;2023-02-24T13:32:39;5.45;;;1.90;;
53652;SDS011;39553;52.954;5.932;2023-02-24T13:37:46;11.43;;;3.40;;
53652;SDS011;39553;52.954;5.932;2023-02-24T13:45:33;7.70;;;1.33;;
53652;SDS011;39553;52.954;5.932;2023-02-24T14:01:47;10.55;;;3.10;;
53652;SDS011;39553;52.954;5.932;2023-02-24T14:04:32;11.82;;;2.60;;
53652;SDS011;39553;52.954;5.932;2023-02-24T14:07:04;16.30;;;4.10;;
53652;SDS011;39553;52.954;5.932;2023-02-24T14:09:42;6.72;;;1.90;;
53652;SDS011;39553;52.954;5.932;2023-02-24T14:12:18;11.80;;;2.65;;
53652;SDS011;39553;52.954;5.932;2023-02-24T14:14:49;9.60;;;1.80;;
53652;SDS011;39553;52.954;5.932;2023-02-24T14:17:30;14.95;;;2.20;;
53652;SDS011;39553;52.954;5.932;2023-02-24T14:20:09;11.85;;;2.72;;
53652;SDS011;39553;52.954;5.932;2023-02-24T14:22:55;6.95;;;1.65;;
53652;SDS011;39553;52.954;5.932;2023-02-24T14:25:28;15.85;;;2.90;;
53652;SDS011;39553;52.954;5.932;2023-02-24T14:28:00;17.83;;;2.67;;
53652;SDS011;39553;52.954;5.932;2023-02-24T14:33:03;8.57;;;2.13;;
53652;SDS011;39553;52.954;5.932;2023-02-24T14:35:36;8.63;;;2.15;;
53652;SDS011;39553;52.954;5.932;2023-02-24T14:38:25;13.68;;;3.25;;
53652;SDS011;39553;52.954;5.932;2023-02-24T14:40:53;8.55;;;1.92;;
53652;SDS011;39553;52.954;5.932;2023-02-24T14:43:20;6.72;;;1.65;;
53652;SDS011;39553;52.954;5.932;2023-02-24T14:45:47;9.10;;;1.88;;
53652;SDS011;39553;52.954;5.932;2023-02-24T14:48:22;5.88;;;1.30;;
53652;SDS011;39553;52.954;5.932;2023-02-24T14:50:50;7.15;;;1.33;;
53652;SDS011;39553;52.954;5.932;2023-02-24T14:53:20;7.25;;;1.63;;
53652;SDS011;39553;52.954;5.932;2023-02-24T14:55:50;8.93;;;2.13;;
53652;SDS011;39553;52.954;5.932;2023-02-24T14:59:03;10.40;;;2.15;;
53652;SDS011;39553;52.954;5.932;2023-02-24T15:01:32;14.82;;;2.85;;
53652;SDS011;39553;52.954;5.932;2023-02-24T15:04:51;8.52;;;1.85;;
53652;SDS011;39553;52.954;5.932;2023-02-24T15:06:55;16.02;;;3.28;;
53652;SDS011;39553;52.954;5.932;2023-02-24T15:09:22;8.18;;;3.60;;
53652;SDS011;39553;52.954;5.932;2023-02-24T15:11:50;16.65;;;2.63;;
53652;SDS011;39553;52.954;5.932;2023-02-24T15:14:26;6.25;;;1.88;;
53652;SDS011;39553;52.954;5.932;2023-02-24T15:16:55;6.20;;;2.28;;
53652;SDS011;39553;52.954;5.932;2023-02-24T15:19:35;6.93;;;1.40;;
53652;SDS011;39553;52.954;5.932;2023-02-24T15:22:03;6.78;;;1.90;;
53652;SDS011;39553;52.954;5.932;2023-02-24T15:24:42;10.07;;;2.08;;
53652;SDS011;39553;52.954;5.932;2023-02-24T15:29:40;17.30;;;2.92;;
53652;SDS011;39553;52.954;5.932;2023-02-24T15:32:14;12.57;;;2.30;;
53652;SDS011;39553;52.954;5.932;2023-02-24T15:34:47;13.98;;;2.47;;
53652;SDS011;39553;52.954;5.932;2023-02-24T15:37:23;16.15;;;2.20;;
53652;SDS011;39553;52.954;5.932;2023-02-24T15:40:17;12.30;;;1.80;;
53652;SDS011;39553;52.954;5.932;2023-02-24T15:43:29;9.77;;;2.08;;
53652;SDS011;39553;52.954;5.932;2023-02-24T15:45:36;17.45;;;2.85;;
53652;SDS011;39553;52.954;5.932;2023-02-24T15:48:17;8.32;;;2.30;;
53652;SDS011;39553;52.954;5.932;2023-02-24T15:50:48;10.40;;;3.00;;
53652;SDS011;39553;52.954;5.932;2023-02-24T15:53:14;12.00;;;2.85;;
53652;SDS011;39553;52.954;5.932;2023-02-24T15:55:41;16.17;;;1.73;;
53652;SDS011;39553;52.954;5.932;2023-02-24T15:58:15;9.02;;;1.85;;
53652;SDS011;39553;52.954;5.932;2023-02-24T16:00:43;8.98;;;2.03;;
53652;SDS011;39553;52.954;5.932;2023-02-24T16:03:10;8.48;;;1.92;;
53652;SDS011;39553;52.954;5.932;2023-02-24T16:05:37;11.43;;;2.60;;
53652;SDS011;39553;52.954;5.932;2023-02-24T16:08:03;18.13;;;3.05;;
53652;SDS011;39553;52.954;5.932;2023-02-24T16:10:29;10.18;;;2.60;;
53652;SDS011;39553;52.954;5.932;2023-02-24T16:12:55;18.42;;;3.30;;
53652;SDS011;39553;52.954;5.932;2023-02-24T16:15:26;4.40;;;1.70;;
53652;SDS011;39553;52.954;5.932;2023-02-24T16:17:58;17.85;;;3.22;;
53652;SDS011;39553;52.954;5.932;2023-02-24T16:20:27;18.30;;;2.67;;
53652;SDS011;39553;52.954;5.932;2023-02-24T16:23:00;13.25;;;2.95;;
53652;SDS011;39553;52.954;5.932;2023-02-24T16:25:28;17.52;;;2.47;;
53652;SDS011;39553;52.954;5.932;2023-02-24T16:27:59;12.90;;;2.80;;
53652;SDS011;39553;52.954;5.932;2023-02-24T16:30:26;15.10;;;3.60;;
53652;SDS011;39553;52.954;5.932;2023-02-24T16:32:58;4.90;;;1.30;;
53652;SDS011;39553;52.954;5.932;2023-02-24T16:35:25;15.90;;;3.47;;
53652;SDS011;39553;52.954;5.932;2023-02-24T16:37:53;22.67;;;3.33;;
53652;SDS011;39553;52.954;5.932;2023-02-24T16:40:22;12.27;;;3.28;;
53652;SDS011;39553;52.954;5.932;2023-02-24T16:42:52;10.60;;;3.08;;
53652;SDS011;39553;52.954;5.932;2023-02-24T16:45:21;16.20;;;3.20;;
53652;SDS011;39553;52.954;5.932;2023-02-24T16:47:51;15.73;;;3.63;;
53652;SDS011;39553;52.954;5.932;2023-02-24T16:50:24;11.13;;;2.28;;
53652;SDS011;39553;52.954;5.932;2023-02-24T16:52:57;26.70;;;3.38;;
53652;SDS011;39553;52.954;5.932;2023-02-24T16:55:24;16.75;;;3.90;;
53652;SDS011;39553;52.954;5.932;2023-02-24T16:57:53;10.32;;;3.17;;
53652;SDS011;39553;52.954;5.932;2023-02-24T17:00:18;14.60;;;3.60;;
53652;SDS011;39553;52.954;5.932;2023-02-24T17:02:48;19.92;;;5.05;;
53652;SDS011;39553;52.954;5.932;2023-02-24T17:05:16;13.60;;;2.75;;
53652;SDS011;39553;52.954;5.932;2023-02-24T17:07:47;23.08;;;5.05;;
53652;SDS011;39553;52.954;5.932;2023-02-24T17:10:15;22.23;;;4.85;;
53652;SDS011;39553;52.954;5.932;2023-02-24T17:12:43;29.05;;;4.25;;
53652;SDS011;39553;52.954;5.932;2023-02-24T17:15:16;25.50;;;4.32;;
53652;SDS011;39553;52.954;5.932;2023-02-24T17:17:43;16.60;;;3.92;;
53652;SDS011;39553;52.954;5.932;2023-02-24T17:20:13;24.17;;;5.65;;
53652;SDS011;39553;52.954;5.932;2023-02-24T17:22:42;21.35;;;4.93;;
53652;SDS011;39553;52.954;5.932;2023-02-24T17:25:16;30.70;;;4.18;;
53652;SDS011;39553;52.954;5.932;2023-02-24T17:27:44;27.83;;;4.97;;
53652;SDS011;39553;52.954;5.932;2023-02-24T17:30:14;20.10;;;4.70;;
53652;SDS011;39553;52.954;5.932;2023-02-24T17:32:41;26.38;;;4.15;;
53652;SDS011;39553;52.954;5.932;2023-02-24T17:35:12;23.55;;;4.18;;
53652;SDS011;39553;52.954;5.932;2023-02-24T17:37:37;12.68;;;2.70;;
53652;SDS011;39553;52.954;5.932;2023-02-24T17:40:04;12.80;;;2.65;;
53652;SDS011;39553;52.954;5.932;2023-02-24T17:42:30;11.00;;;2.47;;
53652;SDS011;39553;52.954;5.932;2023-02-24T17:44:57;16.73;;;2.80;;
53652;SDS011;39553;52.954;5.932;2023-02-24T17:47:23;11.07;;;2.85;;
53652;SDS011;39553;52.954;5.932;2023-02-24T17:49:48;16.15;;;3.42;;
53652;SDS011;39553;52.954;5.932;2023-02-24T17:52:14;21.98;;;10.57;;
53652;SDS011;39553;52.954;5.932;2023-02-24T17:54:40;13.50;;;2.63;;